createdAt,value
2023-07-11T00:01:27.588Z,20.32
2023-07-11T00:03:55.152Z,20.31
2023-07-11T00:06:23.154Z,20.28
2023-07-11T00:08:50.634Z,20.25
2023-07-11T00:11:19.722Z,20.23
2023-07-11T00:13:51.314Z,20.20
2023-07-11T00:16:20.919Z,20.18
2023-07-11T00:18:49.876Z,20.15
2023-07-11T00:21:17.705Z,20.11
2023-07-11T00:23:45.212Z,20.08
2023-07-11T00:26:12.950Z,20.06
2023-07-11T00:28:40.492Z,20.04
2023-07-11T00:31:08.446Z,20.01
2023-07-11T00:33:37.901Z,19.99
2023-07-11T00:36:07.470Z,19.98
2023-07-11T00:38:35.484Z,19.96
2023-07-11T00:41:05.154Z,19.92
2023-07-11T00:43:32.660Z,19.92
2023-07-11T00:46:11.409Z,19.89
2023-07-11T00:48:50.247Z,19.87
2023-07-11T00:51:26.276Z,19.84
2023-07-11T00:53:55.009Z,19.81
2023-07-11T00:56:28.175Z,19.80
2023-07-11T00:58:59.040Z,19.79
2023-07-11T01:01:28.342Z,19.76
2023-07-11T01:03:57.137Z,19.75
2023-07-11T01:06:29.958Z,19.74
2023-07-11T01:09:01.388Z,19.72
2023-07-11T01:11:32.768Z,19.70
2023-07-11T01:14:00.667Z,19.62
2023-07-11T01:16:29.468Z,19.59
2023-07-11T01:18:57.052Z,19.60
2023-07-11T01:21:24.980Z,19.58
2023-07-11T01:23:54.502Z,19.57
2023-07-11T01:26:22.077Z,19.54
2023-07-11T01:28:49.930Z,19.53
2023-07-11T01:31:17.629Z,19.51
2023-07-11T01:33:46.574Z,19.48
2023-07-11T01:36:14.868Z,19.45
2023-07-11T01:38:43.619Z,19.43
2023-07-11T01:41:11.269Z,19.40
2023-07-11T01:43:38.908Z,19.38
2023-07-11T01:46:07.188Z,19.36
2023-07-11T01:48:35.030Z,19.34
2023-07-11T01:51:03.101Z,19.27
2023-07-11T01:53:30.866Z,19.25
2023-07-11T01:56:04.644Z,19.22
2023-07-11T01:58:34.017Z,19.16
2023-07-11T02:01:01.937Z,19.13
2023-07-11T02:03:30.004Z,19.10
2023-07-11T02:05:57.908Z,19.05
2023-07-11T02:08:26.623Z,19.02
2023-07-11T02:10:54.601Z,18.97
2023-07-11T02:13:22.168Z,18.94
2023-07-11T02:15:50.779Z,18.90
2023-07-11T02:18:20.456Z,18.87
2023-07-11T02:20:48.107Z,18.83
2023-07-11T02:23:17.314Z,18.80
2023-07-11T02:25:45.187Z,18.77
2023-07-11T02:28:12.973Z,18.74
2023-07-11T02:30:42.069Z,18.70
2023-07-11T02:33:09.621Z,18.67
2023-07-11T02:35:37.204Z,18.63
2023-07-11T02:38:04.788Z,18.62
2023-07-11T02:40:32.517Z,18.62
2023-07-11T02:43:00.007Z,18.59
2023-07-11T02:45:27.909Z,18.58
2023-07-11T02:47:55.573Z,18.58
2023-07-11T02:50:23.358Z,18.57
2023-07-11T02:52:51.003Z,18.55
2023-07-11T02:55:19.368Z,18.52
2023-07-11T02:57:47.060Z,18.48
2023-07-11T03:00:15.189Z,18.45
2023-07-11T03:02:43.035Z,18.42
2023-07-11T03:05:11.395Z,18.40
2023-07-11T03:07:39.486Z,18.39
2023-07-11T03:10:07.783Z,18.37
2023-07-11T03:12:35.396Z,18.35
2023-07-11T03:15:04.866Z,18.35
2023-07-11T03:17:33.262Z,18.32
2023-07-11T03:20:01.274Z,18.29
2023-07-11T03:22:29.774Z,18.26
2023-07-11T03:24:57.326Z,18.23
2023-07-11T03:27:25.001Z,18.21
2023-07-11T03:29:52.557Z,18.17
2023-07-11T03:32:21.335Z,18.15
2023-07-11T03:34:54.136Z,18.09
2023-07-11T03:37:27.009Z,18.05
2023-07-11T03:40:01.297Z,18.03
2023-07-11T03:42:28.992Z,18.02
2023-07-11T03:44:57.008Z,18.01
2023-07-11T03:47:25.503Z,18.01
2023-07-11T03:49:59.061Z,18.01
2023-07-11T03:52:27.299Z,17.99
2023-07-11T03:54:59.103Z,17.98
2023-07-11T03:57:26.809Z,17.98
2023-07-11T03:59:54.413Z,17.97
2023-07-11T04:02:22.089Z,17.94
2023-07-11T04:04:49.686Z,17.94
2023-07-11T04:07:17.556Z,17.92
2023-07-11T04:09:45.289Z,17.90
2023-07-11T04:12:13.050Z,17.88
2023-07-11T04:14:40.956Z,17.87
2023-07-11T04:17:08.846Z,17.85
2023-07-11T04:19:36.628Z,17.85
2023-07-11T04:22:04.633Z,17.84
2023-07-11T04:24:32.181Z,17.84
2023-07-11T04:26:59.737Z,17.84
2023-07-11T04:29:27.255Z,17.87
2023-07-11T04:31:55.172Z,17.87
2023-07-11T04:34:22.870Z,17.88
2023-07-11T04:36:50.609Z,17.87
2023-07-11T04:39:19.331Z,17.90
2023-07-11T04:41:46.966Z,17.91
2023-07-11T04:44:15.860Z,17.94
2023-07-11T04:46:43.768Z,17.98
2023-07-11T04:49:11.637Z,18.02
2023-07-11T04:51:39.433Z,18.14
2023-07-11T04:54:07.259Z,18.34
2023-07-11T04:56:41.128Z,18.59
2023-07-11T04:59:09.326Z,18.81
2023-07-11T05:01:37.359Z,19.03
2023-07-11T05:04:05.256Z,19.21
2023-07-11T05:06:32.905Z,19.43
2023-07-11T05:09:01.622Z,19.63
2023-07-11T05:11:29.434Z,19.79
2023-07-11T05:13:57.043Z,19.87
2023-07-11T05:16:29.682Z,19.85
2023-07-11T05:18:58.830Z,19.79
2023-07-11T05:21:28.697Z,19.72
2023-07-11T05:23:56.892Z,19.68
2023-07-11T05:26:24.735Z,19.67
2023-07-11T05:28:52.499Z,19.67
2023-07-11T05:31:20.367Z,19.71
2023-07-11T05:33:48.183Z,19.76
2023-07-11T05:36:26.460Z,19.83
2023-07-11T05:38:56.038Z,19.90
2023-07-11T05:41:24.121Z,19.99
2023-07-11T05:43:51.640Z,20.05
2023-07-11T05:46:19.795Z,20.14
2023-07-11T05:48:47.320Z,20.22
2023-07-11T05:51:16.424Z,20.30
2023-07-11T05:53:50.144Z,20.40
2023-07-11T05:56:24.368Z,20.49
2023-07-11T05:58:54.839Z,20.58
2023-07-11T06:01:27.939Z,20.66
2023-07-11T06:04:16.457Z,20.76
2023-07-11T06:06:44.988Z,20.84
2023-07-11T06:09:22.646Z,20.98
2023-07-11T06:11:57.119Z,21.10
2023-07-11T06:14:30.651Z,21.22
2023-07-11T06:16:58.489Z,21.35
2023-07-11T06:19:28.244Z,21.47
2023-07-11T06:21:56.482Z,21.58
2023-07-11T06:24:23.989Z,21.71
2023-07-11T06:26:51.474Z,21.86
2023-07-11T06:29:19.010Z,22.01
2023-07-11T06:31:46.814Z,22.14
2023-07-11T06:34:14.629Z,22.30
2023-07-11T06:36:42.245Z,22.47
2023-07-11T06:39:11.745Z,22.63
2023-07-11T06:41:39.913Z,22.79
2023-07-11T06:44:09.543Z,22.96
2023-07-11T06:46:37.156Z,23.14
2023-07-11T06:49:05.099Z,23.33
2023-07-11T06:51:32.630Z,23.52
2023-07-11T06:54:00.150Z,23.72
2023-07-11T06:56:27.979Z,23.90
2023-07-11T06:58:55.538Z,24.09
2023-07-11T07:01:36.271Z,24.24
2023-07-11T07:04:06.196Z,24.40
2023-07-11T07:06:34.203Z,24.53
2023-07-11T07:09:01.894Z,24.68
2023-07-11T07:11:29.612Z,24.84
2023-07-11T07:14:05.449Z,25.05
2023-07-11T07:16:39.882Z,25.26
2023-07-11T07:19:10.470Z,25.43
2023-07-11T07:21:38.670Z,25.62
2023-07-11T07:24:08.720Z,25.80
2023-07-11T07:26:36.631Z,26.00
2023-07-11T07:29:04.113Z,26.15
2023-07-11T07:31:31.696Z,26.29
2023-07-11T07:33:59.319Z,26.39
2023-07-11T07:36:26.849Z,26.53
2023-07-11T07:38:54.362Z,26.67
2023-07-11T07:41:22.317Z,26.79
2023-07-11T07:43:49.868Z,26.93
2023-07-11T07:46:20.760Z,27.08
2023-07-11T07:48:48.662Z,27.20
2023-07-11T07:51:20.048Z,27.34
2023-07-11T07:53:48.020Z,27.39
2023-07-11T07:56:20.307Z,27.46
2023-07-11T07:58:49.429Z,27.54
2023-07-11T08:01:20.545Z,27.61
2023-07-11T08:03:48.091Z,27.65
2023-07-11T08:06:18.381Z,27.76
2023-07-11T08:08:47.985Z,27.90
2023-07-11T08:11:19.003Z,28.00
2023-07-11T08:13:59.122Z,28.07
2023-07-11T08:16:33.626Z,28.21
2023-07-11T08:19:07.753Z,28.38
2023-07-11T08:21:38.652Z,28.48
2023-07-11T08:24:08.690Z,28.52
2023-07-11T08:26:36.649Z,28.51
2023-07-11T08:29:13.234Z,28.55
2023-07-11T08:31:52.050Z,28.67
2023-07-11T08:34:20.187Z,28.62
2023-07-11T08:36:48.068Z,28.72
2023-07-11T08:39:15.932Z,28.80
2023-07-11T08:41:56.285Z,28.81
2023-07-11T08:44:40.104Z,28.80
2023-07-11T08:47:32.438Z,28.94
2023-07-11T08:50:24.090Z,29.06
2023-07-11T08:53:14.029Z,28.97
2023-07-11T08:55:50.374Z,28.96
2023-07-11T08:58:32.810Z,29.06
2023-07-11T09:01:05.705Z,29.18
2023-07-11T09:03:47.653Z,29.22
2023-07-11T09:06:31.926Z,29.24
2023-07-11T09:09:00.898Z,29.21
2023-07-11T09:11:52.102Z,29.29
2023-07-11T09:14:45.037Z,29.33
2023-07-11T09:17:31.042Z,29.19
2023-07-11T09:20:43.801Z,29.08
2023-07-11T09:23:39.177Z,28.98
2023-07-11T09:26:29.130Z,28.94
2023-07-11T09:29:07.314Z,28.98
2023-07-11T09:31:44.252Z,29.01
2023-07-11T09:34:27.337Z,29.07
2023-07-11T09:37:01.126Z,29.28
2023-07-11T09:39:48.546Z,29.53
2023-07-11T09:42:30.921Z,29.65
2023-07-11T09:45:10.349Z,29.58
2023-07-11T09:47:40.916Z,29.67
2023-07-11T09:50:41.465Z,29.83
2023-07-11T09:53:24.211Z,29.93
2023-07-11T09:56:11.165Z,29.92
2023-07-11T09:58:41.702Z,29.96
2023-07-11T10:01:31.538Z,29.99
2023-07-11T10:04:01.973Z,30.00
2023-07-11T10:09:15.983Z,30.07
2023-07-11T10:11:56.489Z,30.15
2023-07-11T10:14:34.802Z,30.23
2023-07-11T10:17:24.070Z,30.25
2023-07-11T10:20:12.046Z,30.15
2023-07-11T10:22:52.652Z,29.98
2023-07-11T10:25:29.584Z,29.99
2023-07-11T10:28:31.420Z,30.01
2023-07-11T10:31:20.374Z,29.97
2023-07-11T10:33:59.764Z,29.94
2023-07-11T10:36:38.878Z,29.87
2023-07-11T10:39:17.859Z,29.89
2023-07-11T10:42:05.023Z,29.97
2023-07-11T10:44:45.548Z,30.02
2023-07-11T10:47:13.752Z,30.09
2023-07-11T10:49:46.048Z,30.09
2023-07-11T10:52:24.117Z,30.14
2023-07-11T10:55:20.022Z,30.25
2023-07-11T10:57:54.236Z,30.19
2023-07-11T11:00:33.277Z,30.18
2023-07-11T11:03:35.973Z,30.30
2023-07-11T11:06:30.744Z,30.43
2023-07-11T11:09:22.324Z,30.60
2023-07-11T11:12:15.713Z,30.72
2023-07-11T11:15:13.921Z,30.74
2023-07-11T11:18:25.347Z,30.73
2023-07-11T11:21:20.948Z,30.73
2023-07-11T11:24:32.036Z,30.69
2023-07-11T11:27:28.233Z,30.71
2023-07-11T11:30:13.743Z,30.85
2023-07-11T11:33:19.286Z,30.97
2023-07-11T11:36:32.463Z,31.06
2023-07-11T11:39:34.084Z,31.14
2023-07-11T11:42:09.208Z,31.10
2023-07-11T11:52:44.594Z,31.14
2023-07-11T11:56:14.466Z,31.33
2023-07-11T11:59:00.297Z,31.52
2023-07-11T12:01:57.828Z,31.67
2023-07-11T12:04:28.614Z,31.82
2023-07-11T12:07:02.699Z,31.87
2023-07-11T12:09:49.666Z,31.82
2023-07-11T12:12:23.064Z,31.84
2023-07-11T12:14:53.675Z,31.85
2023-07-11T12:17:30.521Z,31.88
2023-07-11T12:20:01.562Z,31.90
2023-07-11T12:22:38.300Z,31.94
2023-07-11T12:25:25.053Z,32.00
2023-07-11T12:27:55.429Z,32.06
2023-07-11T12:30:32.283Z,32.13
2023-07-11T12:33:34.626Z,32.08
2023-07-11T12:36:08.284Z,32.02
2023-07-11T12:38:48.810Z,32.03
2023-07-11T12:41:54.786Z,32.00
2023-07-11T12:44:22.863Z,32.07
2023-07-11T12:46:53.380Z,32.18
2023-07-11T12:49:30.588Z,32.34
2023-07-11T12:52:13.191Z,32.42
2023-07-11T12:54:44.091Z,32.53
2023-07-11T12:57:24.627Z,32.63
2023-07-11T12:59:52.278Z,32.69
2023-07-11T13:02:30.358Z,32.75
2023-07-11T13:05:00.310Z,32.68
2023-07-11T13:07:33.606Z,32.72
2023-07-11T13:10:03.069Z,32.75
2023-07-11T13:12:37.750Z,32.65
2023-07-11T13:15:23.211Z,32.61
2023-07-11T13:17:55.783Z,32.69
2023-07-11T13:20:34.065Z,32.77
2023-07-11T13:23:02.394Z,32.85
2023-07-11T13:25:35.889Z,32.92
2023-07-11T13:28:15.330Z,32.95
2023-07-11T13:30:42.903Z,32.97
2023-07-11T13:39:04.322Z,32.57
2023-07-11T13:41:38.792Z,32.54
2023-07-11T13:44:36.421Z,32.69
2023-07-11T13:47:22.843Z,32.87
2023-07-11T13:50:10.065Z,33.08
2023-07-11T13:53:12.566Z,33.11
2023-07-11T13:55:51.874Z,32.97
2023-07-11T13:58:21.723Z,32.81
2023-07-11T14:00:54.035Z,32.79
2023-07-11T14:03:25.351Z,32.72
2023-07-11T14:06:02.617Z,32.83
2023-07-11T14:08:30.684Z,32.83
2023-07-11T14:10:58.212Z,32.86
2023-07-11T14:13:28.245Z,32.98
2023-07-11T14:15:59.823Z,33.04
2023-07-11T14:18:27.383Z,33.16
2023-07-11T14:20:55.329Z,33.09
2023-07-11T14:23:27.658Z,32.94
2023-07-11T14:25:56.197Z,32.81
2023-07-11T14:28:24.743Z,32.73
2023-07-11T14:30:59.056Z,32.69
2023-07-11T14:33:34.317Z,32.71
2023-07-11T14:36:02.323Z,32.72
2023-07-11T14:38:29.842Z,32.72
2023-07-11T14:40:57.580Z,32.81
2023-07-11T14:43:27.569Z,32.85
2023-07-11T14:45:55.291Z,32.80
2023-07-11T14:48:30.256Z,32.66
2023-07-11T14:51:05.747Z,32.59
2023-07-11T14:53:40.290Z,32.52
2023-07-11T14:58:58.036Z,32.35
2023-07-11T15:01:25.918Z,32.45
2023-07-11T15:11:34.236Z,32.54
2023-07-11T15:16:33.066Z,32.62
2023-07-11T15:19:00.636Z,32.71
2023-07-11T15:21:28.254Z,32.72
2023-07-11T15:23:55.817Z,32.73
2023-07-11T15:26:26.081Z,32.80
2023-07-11T15:28:54.096Z,32.85
2023-07-11T15:31:22.157Z,32.88
2023-07-11T15:33:51.396Z,32.83
2023-07-11T15:36:18.911Z,32.82
2023-07-11T15:38:46.554Z,32.87
2023-07-11T15:41:18.812Z,32.91
2023-07-11T15:43:50.331Z,33.01
2023-07-11T15:46:34.355Z,33.09
2023-07-11T15:49:18.017Z,33.09
2023-07-11T15:51:46.704Z,33.04
2023-07-11T15:54:23.209Z,33.01
2023-07-11T15:56:51.175Z,32.94
2023-07-11T15:59:23.129Z,32.92
2023-07-11T16:01:52.791Z,32.82
2023-07-11T16:04:32.798Z,32.73
2023-07-11T16:07:03.314Z,32.72
2023-07-11T16:09:31.590Z,32.67
2023-07-11T16:12:01.360Z,32.60
2023-07-11T16:14:28.912Z,32.50
2023-07-11T16:16:56.525Z,32.38
2023-07-11T16:19:31.722Z,32.34
2023-07-11T16:21:59.580Z,32.26
2023-07-11T16:24:27.132Z,32.18
2023-07-11T16:26:56.393Z,32.11
2023-07-11T16:29:30.793Z,32.07
2023-07-11T16:32:00.119Z,32.07
2023-07-11T16:34:28.182Z,32.05
2023-07-11T16:36:57.836Z,32.00
2023-07-11T16:39:32.080Z,32.01
2023-07-11T16:41:59.661Z,32.00
2023-07-11T16:44:29.575Z,32.01
2023-07-11T16:47:00.130Z,31.99
2023-07-11T16:49:28.488Z,31.96
2023-07-11T16:51:56.377Z,31.95
2023-07-11T16:54:25.410Z,31.95
2023-07-11T16:56:52.943Z,31.91
2023-07-11T16:59:28.487Z,31.83
2023-07-11T17:01:58.751Z,31.80
2023-07-11T17:04:26.569Z,31.85
2023-07-11T17:06:55.178Z,31.92
2023-07-11T17:09:25.968Z,31.98
2023-07-11T17:11:54.055Z,32.01
2023-07-11T17:14:21.660Z,32.00
2023-07-11T17:16:57.529Z,31.98
2023-07-11T17:19:36.436Z,31.90
2023-07-11T17:22:15.612Z,31.82
2023-07-11T17:24:44.625Z,31.76
2023-07-11T17:27:25.939Z,31.84
2023-07-11T17:29:54.894Z,31.82
2023-07-11T17:32:26.167Z,31.88
2023-07-11T17:34:53.919Z,31.92
2023-07-11T17:37:21.408Z,31.99
2023-07-11T17:39:49.315Z,32.12
2023-07-11T17:42:17.256Z,32.22
2023-07-11T17:44:47.984Z,32.27
2023-07-11T17:50:10.788Z,32.42
2023-07-11T17:52:38.510Z,32.41
2023-07-11T17:55:09.432Z,32.38
2023-07-11T17:57:40.159Z,32.26
2023-07-11T18:00:21.795Z,32.02
2023-07-11T18:03:01.457Z,31.64
2023-07-11T18:05:30.760Z,31.20
2023-07-11T18:07:59.451Z,30.86
2023-07-11T18:10:31.453Z,30.54
2023-07-11T18:13:10.272Z,30.26
2023-07-11T18:15:45.934Z,30.02
2023-07-11T18:18:34.469Z,29.77
2023-07-11T18:21:02.189Z,29.53
2023-07-11T18:23:30.114Z,29.31
2023-07-11T18:25:59.347Z,29.10
2023-07-11T18:28:27.292Z,28.95
2023-07-11T18:30:55.221Z,28.80
2023-07-11T18:33:23.298Z,28.66
2023-07-11T18:35:51.121Z,28.54
2023-07-11T18:38:28.582Z,28.44
2023-07-11T18:40:56.135Z,28.33
2023-07-11T18:43:24.916Z,28.20
2023-07-11T18:45:52.431Z,28.11
2023-07-11T18:48:19.887Z,27.98
2023-07-11T18:50:47.407Z,27.87
2023-07-11T18:53:16.343Z,27.76
2023-07-11T18:55:47.386Z,27.63
2023-07-11T18:58:16.568Z,27.44
2023-07-11T19:00:49.196Z,27.32
2023-07-11T19:03:18.610Z,27.21
2023-07-11T19:05:47.277Z,27.07
2023-07-11T19:08:20.754Z,26.95
2023-07-11T19:10:51.672Z,26.80
2023-07-11T19:13:19.566Z,26.66
2023-07-11T19:15:52.423Z,26.52
2023-07-11T19:18:26.207Z,26.37
2023-07-11T19:20:54.126Z,26.21
2023-07-11T19:23:28.205Z,26.07
2023-07-11T19:25:59.858Z,25.92
2023-07-11T19:28:31.539Z,25.78
2023-07-11T19:31:08.557Z,25.66
2023-07-11T19:33:39.062Z,25.55
2023-07-11T19:36:18.259Z,25.45
2023-07-11T19:38:51.363Z,25.32
2023-07-11T19:41:21.720Z,25.19
2023-07-11T19:43:51.719Z,25.11
2023-07-11T19:46:35.478Z,25.03
2023-07-11T19:49:03.288Z,24.98
2023-07-11T19:51:31.061Z,24.93
2023-07-11T19:53:58.718Z,24.87
2023-07-11T19:56:31.805Z,24.83
2023-07-11T19:59:02.802Z,24.79
2023-07-11T20:01:31.750Z,24.76
2023-07-11T20:03:59.553Z,24.74
2023-07-11T20:06:27.080Z,24.71
2023-07-11T20:08:54.613Z,24.68
2023-07-11T20:11:22.175Z,24.66
2023-07-11T20:13:50.356Z,24.64
2023-07-11T20:16:24.688Z,24.63
2023-07-11T20:18:54.926Z,24.58
2023-07-11T20:21:24.207Z,24.54
2023-07-11T20:23:52.944Z,24.53
2023-07-11T20:26:24.009Z,24.50
2023-07-11T20:28:57.896Z,24.47
2023-07-11T20:31:27.377Z,24.43
2023-07-11T20:33:55.131Z,24.41
2023-07-11T20:36:29.234Z,24.37
2023-07-11T20:38:59.569Z,24.31
2023-07-11T20:41:29.677Z,24.27
2023-07-11T20:44:02.308Z,24.23
2023-07-11T20:46:30.007Z,24.19
2023-07-11T20:49:00.869Z,24.09
2023-07-11T20:51:28.918Z,23.98
2023-07-11T20:53:56.891Z,23.83
2023-07-11T20:56:24.495Z,23.68
2023-07-11T20:58:57.648Z,23.50
2023-07-11T21:01:43.909Z,23.37
2023-07-11T21:04:11.631Z,23.24
2023-07-11T21:06:42.635Z,23.19
2023-07-11T21:09:19.209Z,23.11
2023-07-11T21:11:51.505Z,22.99
2023-07-11T21:14:19.057Z,22.88
2023-07-11T21:16:46.614Z,22.79
2023-07-11T21:19:36.163Z,22.70
2023-07-11T21:22:12.778Z,22.62
2023-07-11T21:24:40.336Z,22.56
2023-07-11T21:27:12.257Z,22.52
2023-07-11T21:29:41.874Z,22.47
2023-07-11T21:32:18.767Z,22.44
2023-07-11T21:34:46.706Z,22.40
2023-07-11T21:37:15.628Z,22.36
2023-07-11T21:39:43.152Z,22.33
2023-07-11T21:42:13.829Z,22.29
2023-07-11T21:44:41.324Z,22.26
2023-07-11T21:47:09.610Z,22.23
2023-07-11T21:49:48.969Z,22.21
2023-07-11T21:52:24.744Z,22.18
2023-07-11T21:55:08.300Z,22.14
2023-07-11T21:57:35.952Z,22.09
2023-07-11T22:00:16.469Z,22.04
2023-07-11T22:02:44.049Z,21.95
2023-07-11T22:05:13.567Z,21.84
2023-07-11T22:07:41.607Z,21.69
2023-07-11T22:10:30.720Z,21.56
2023-07-11T22:12:59.371Z,21.40
2023-07-11T22:15:28.276Z,21.27
2023-07-11T22:17:59.025Z,21.16
2023-07-11T22:20:38.355Z,21.03
2023-07-11T22:23:08.069Z,20.90
2023-07-11T22:25:37.165Z,20.81
2023-07-11T22:28:14.513Z,20.76
2023-07-11T22:30:45.421Z,20.72
2023-07-11T22:33:16.200Z,20.68
2023-07-11T22:35:45.006Z,20.67
2023-07-11T22:38:15.882Z,20.67
2023-07-11T22:40:49.246Z,20.65
2023-07-11T22:43:25.597Z,20.63
2023-07-11T22:45:58.194Z,20.61
2023-07-11T22:48:29.954Z,20.61
2023-07-11T22:51:00.048Z,20.59
2023-07-11T22:53:33.451Z,20.58
2023-07-11T22:56:06.516Z,20.56
2023-07-11T22:58:38.994Z,20.56
2023-07-11T23:01:12.590Z,20.54
2023-07-11T23:03:43.729Z,20.49
2023-07-11T23:06:21.273Z,20.49
2023-07-11T23:08:49.972Z,20.44
2023-07-11T23:11:18.433Z,20.43
2023-07-11T23:13:47.268Z,20.40
2023-07-11T23:16:30.569Z,20.39
2023-07-11T23:19:03.657Z,20.33
2023-07-11T23:21:33.002Z,20.28
2023-07-11T23:24:01.409Z,20.25
2023-07-11T23:26:30.278Z,20.20
2023-07-11T23:29:00.225Z,20.17
2023-07-11T23:31:27.959Z,20.17
2023-07-11T23:33:55.536Z,20.15
2023-07-11T23:36:27.162Z,20.12
2023-07-11T23:38:57.917Z,20.09
2023-07-11T23:41:25.715Z,20.06
2023-07-11T23:43:53.759Z,20.03
2023-07-11T23:46:28.205Z,19.99
2023-07-11T23:48:57.419Z,19.93
2023-07-11T23:51:31.695Z,19.90
2023-07-11T23:53:59.526Z,19.84
2023-07-11T23:56:31.453Z,19.80
2023-07-11T23:59:01.579Z,19.76
